createdAt,value
2018-09-28T03:39:07.064Z,5.30
2018-09-28T03:41:36.704Z,3.33
2018-09-28T03:44:06.714Z,5.77
2018-09-28T03:46:36.600Z,3.93
2018-09-28T03:49:07.271Z,4.37
2018-09-28T03:51:36.966Z,3.43
2018-09-28T03:54:06.362Z,5.10
2018-09-28T03:56:35.825Z,5.60
2018-09-28T03:59:05.480Z,5.53
2018-09-28T04:01:35.191Z,6.30
2018-09-28T04:04:04.623Z,4.20
2018-09-28T04:06:34.197Z,4.23
2018-09-28T04:09:03.751Z,4.60
2018-09-28T04:11:33.224Z,3.20
2018-09-28T04:14:02.680Z,5.77
2018-09-28T04:16:32.221Z,5.30
2018-09-28T04:19:01.779Z,6.43
2018-09-28T04:21:31.328Z,4.67
2018-09-28T04:24:01.041Z,6.13
2018-09-28T04:26:32.007Z,6.73
2018-09-28T04:29:01.497Z,7.27
2018-09-28T04:31:31.229Z,4.83
2018-09-28T04:34:00.807Z,6.70
2018-09-28T04:36:30.360Z,6.10
2018-09-28T04:38:59.772Z,6.17
2018-09-28T04:41:29.481Z,5.50
2018-09-28T04:43:59.954Z,6.00
2018-09-28T04:46:29.573Z,4.67
2018-09-28T04:48:59.071Z,5.03
2018-09-28T04:51:30.808Z,5.37
2018-09-28T04:54:00.485Z,5.90
2018-09-28T04:56:30.530Z,7.63
2018-09-28T04:59:00.456Z,5.37
2018-09-28T05:01:29.956Z,7.40
2018-09-28T05:03:59.760Z,7.10
2018-09-28T05:06:30.389Z,6.03
2018-09-28T05:08:59.941Z,6.83
2018-09-28T05:11:29.445Z,4.53
2018-09-28T05:13:59.114Z,6.63
2018-09-28T05:16:28.631Z,5.70
2018-09-28T05:18:58.129Z,7.23
2018-09-28T05:21:27.694Z,6.93
2018-09-28T05:23:57.331Z,7.53
2018-09-28T05:26:27.140Z,8.77
2018-09-28T05:28:57.232Z,5.70
2018-09-28T05:31:26.994Z,8.73
2018-09-28T05:33:56.561Z,5.83
2018-09-28T05:36:26.053Z,5.53
2018-09-28T05:38:56.529Z,5.47
2018-09-28T05:41:26.315Z,6.77
2018-09-28T05:43:56.946Z,7.80
2018-09-28T05:46:26.517Z,10.87
2018-09-28T05:48:56.016Z,7.20
2018-09-28T05:51:25.794Z,7.93
2018-09-28T05:53:55.635Z,8.23
2018-09-28T05:56:25.699Z,5.90
2018-09-28T05:59:00.563Z,7.43
2018-09-28T06:01:35.459Z,6.97
2018-09-28T06:04:10.286Z,6.27
2018-09-28T06:06:39.860Z,4.80
2018-09-28T06:09:10.726Z,5.83
2018-09-28T06:11:40.450Z,5.90
2018-09-28T06:14:10.562Z,7.83
2018-09-28T06:16:40.080Z,6.80
2018-09-28T06:19:09.648Z,6.47
2018-09-28T06:21:39.192Z,8.03
2018-09-28T06:24:08.725Z,8.30
2018-09-28T06:26:38.289Z,8.27
2018-09-28T06:29:07.889Z,5.60
2018-09-28T06:31:37.353Z,7.93
2018-09-28T06:34:06.850Z,7.97
2018-09-28T06:36:36.708Z,8.07
2018-09-28T06:39:07.289Z,8.57
2018-09-28T06:41:37.061Z,6.63
2018-09-28T06:44:06.560Z,5.37
2018-09-28T06:46:36.009Z,6.03
2018-09-28T06:49:05.530Z,10.83
2018-09-28T06:51:35.170Z,8.03
2018-09-28T06:54:04.823Z,6.83
2018-09-28T06:56:34.586Z,5.77
2018-09-28T06:59:04.193Z,6.13
2018-09-28T07:01:33.799Z,6.37
2018-09-28T07:04:03.512Z,8.63
2018-09-28T07:06:32.972Z,8.10
2018-09-28T07:09:02.720Z,7.63
2018-09-28T07:11:32.326Z,6.73
2018-09-28T07:14:02.138Z,6.37
2018-09-28T07:16:32.006Z,7.00
2018-09-28T07:19:01.658Z,6.97
2018-09-28T07:21:31.367Z,6.03
2018-09-28T07:24:01.055Z,8.60
2018-09-28T07:26:30.889Z,7.23
2018-09-28T07:29:00.702Z,8.30
2018-09-28T07:31:30.213Z,7.23
2018-09-28T07:34:00.050Z,9.30
2018-09-28T07:36:29.757Z,5.23
2018-09-28T07:38:59.117Z,8.10
2018-09-28T07:41:29.454Z,6.60
2018-09-28T07:43:59.056Z,7.30
2018-09-28T07:46:28.545Z,8.83
2018-09-28T07:48:58.064Z,9.53
2018-09-28T07:51:27.548Z,9.70
2018-09-28T07:53:57.112Z,8.07
2018-09-28T07:56:26.571Z,10.07
2018-09-28T07:58:56.112Z,11.90
2018-09-28T08:01:25.790Z,13.43
2018-09-28T08:03:55.632Z,11.40
2018-09-28T08:06:25.272Z,9.83
2018-09-28T08:08:55.130Z,10.47
2018-09-28T08:11:24.743Z,9.47
2018-09-28T08:13:54.666Z,7.60
2018-09-28T08:16:24.365Z,5.77
2018-09-28T08:18:53.983Z,7.30
2018-09-28T08:21:23.576Z,7.83
2018-09-28T08:23:53.095Z,9.93
2018-09-28T08:26:22.879Z,9.27
2018-09-28T08:28:52.691Z,6.90
2018-09-28T08:31:22.401Z,8.50
2018-09-28T08:33:52.109Z,8.90
2018-09-28T08:36:21.872Z,11.00
2018-09-28T08:38:51.733Z,10.67
2018-09-28T08:41:21.351Z,10.20
2018-09-28T08:43:51.150Z,10.13
2018-09-28T08:46:21.095Z,11.30
2018-09-28T08:48:51.604Z,14.07
2018-09-28T08:51:21.362Z,15.30
2018-09-28T08:53:51.318Z,18.33
2018-09-28T08:56:20.865Z,16.70
2018-09-28T08:58:50.633Z,20.43
2018-09-28T09:01:20.185Z,23.17
2018-09-28T09:03:49.790Z,23.60
2018-09-28T09:06:19.283Z,23.00
2018-09-28T09:08:48.877Z,23.50
2018-09-28T09:11:18.570Z,19.57
2018-09-28T09:13:48.092Z,19.70
2018-09-28T09:16:17.780Z,22.50
2018-09-28T09:18:47.341Z,21.37
2018-09-28T09:21:16.874Z,21.80
2018-09-28T09:23:46.651Z,17.73
2018-09-28T09:26:16.131Z,18.63
2018-09-28T09:28:45.913Z,19.90
2018-09-28T09:31:15.526Z,19.07
2018-09-28T09:33:46.155Z,22.87
2018-09-28T09:36:15.972Z,22.63
2018-09-28T09:38:45.674Z,56.80
2018-09-28T09:41:16.296Z,28.07
2018-09-28T09:43:45.829Z,19.10
2018-09-28T09:46:15.368Z,19.93
2018-09-28T09:48:44.869Z,20.00
2018-09-28T09:51:14.356Z,19.53
2018-09-28T09:53:43.880Z,22.87
2018-09-28T09:56:13.637Z,21.13
2018-09-28T09:58:43.343Z,20.50
2018-09-28T10:01:18.016Z,20.27
2018-09-28T10:03:49.932Z,20.63
2018-09-28T10:06:19.499Z,19.63
2018-09-28T10:08:49.254Z,23.07
2018-09-28T10:11:18.855Z,21.77
2018-09-28T10:13:48.389Z,28.33
2018-09-28T10:16:17.996Z,25.10
2018-09-28T10:18:47.553Z,26.50
2018-09-28T10:21:17.200Z,27.67
2018-09-28T10:23:46.980Z,26.40
2018-09-28T10:26:16.799Z,29.07
2018-09-28T10:28:46.405Z,24.33
2018-09-28T10:31:16.265Z,28.20
2018-09-28T10:33:45.961Z,25.27
2018-09-28T10:36:15.580Z,27.73
2018-09-28T10:38:45.351Z,25.20
2018-09-28T10:41:14.895Z,25.47
2018-09-28T10:43:44.420Z,28.57
2018-09-28T10:46:14.010Z,26.43
2018-09-28T10:48:43.596Z,23.63
2018-09-28T10:51:13.104Z,20.83
2018-09-28T10:53:42.678Z,23.17
2018-09-28T10:56:12.358Z,21.33
2018-09-28T10:58:42.139Z,21.77
2018-09-28T11:01:11.724Z,26.77
2018-09-28T11:03:41.228Z,23.90
2018-09-28T11:06:11.010Z,25.90
2018-09-28T11:08:40.534Z,23.30
2018-09-28T11:11:10.272Z,21.93
2018-09-28T11:13:39.734Z,21.67
2018-09-28T11:16:09.584Z,23.47
2018-09-28T11:18:39.133Z,20.60
2018-09-28T11:21:09.014Z,23.13
2018-09-28T11:23:38.659Z,20.03
2018-09-28T11:26:08.334Z,22.73
2018-09-28T11:28:38.294Z,20.57
2018-09-28T11:31:08.108Z,18.93
2018-09-28T11:33:37.732Z,20.83
2018-09-28T11:36:07.421Z,22.27
2018-09-28T11:38:36.896Z,18.83
2018-09-28T11:41:06.698Z,18.00
2018-09-28T11:43:36.309Z,15.03
2018-09-28T11:46:05.869Z,14.40
2018-09-28T11:48:35.477Z,19.10
2018-09-28T11:51:05.067Z,16.27
2018-09-28T11:53:34.878Z,14.83
2018-09-28T11:56:04.790Z,16.87
2018-09-28T11:58:34.494Z,13.43
2018-09-28T12:01:04.212Z,15.20
2018-09-28T12:03:33.769Z,13.47
2018-09-28T12:06:03.302Z,12.63
2018-09-28T12:08:33.342Z,15.17
2018-09-28T12:11:03.191Z,13.77
2018-09-28T12:13:32.836Z,15.57
2018-09-28T12:16:02.462Z,12.33
2018-09-28T12:18:32.184Z,12.53
2018-09-28T12:21:02.083Z,12.20
2018-09-28T12:23:31.635Z,10.70
2018-09-28T12:26:01.404Z,11.20
2018-09-28T12:28:31.177Z,11.13
2018-09-28T12:31:00.818Z,12.20
2018-09-28T12:33:30.536Z,12.93
2018-09-28T12:36:00.242Z,13.03
2018-09-28T12:38:29.821Z,11.20
2018-09-28T12:40:59.554Z,9.33
2018-09-28T12:43:35.030Z,7.67
2018-09-28T12:45:59.173Z,10.30
2018-09-28T12:48:28.914Z,10.83
2018-09-28T12:50:58.590Z,10.97
2018-09-28T12:53:28.126Z,9.20
2018-09-28T12:55:58.024Z,13.63
2018-09-28T12:58:27.468Z,8.83
2018-09-28T13:00:57.084Z,10.43
2018-09-28T13:03:26.727Z,7.97
2018-09-28T13:05:56.408Z,11.80
2018-09-28T13:08:26.039Z,9.43
2018-09-28T13:10:55.599Z,9.77
2018-09-28T13:13:25.116Z,7.17
2018-09-28T13:15:54.604Z,9.20
2018-09-28T13:18:24.254Z,7.40
2018-09-28T13:20:53.975Z,6.30
2018-09-28T13:23:23.681Z,12.97
2018-09-28T13:25:53.699Z,24.07
2018-09-28T13:28:23.410Z,13.93
2018-09-28T13:30:53.181Z,7.67
2018-09-28T13:33:22.856Z,6.77
2018-09-28T13:35:52.509Z,6.30
2018-09-28T13:38:22.213Z,7.50
2018-09-28T13:40:51.746Z,7.20
2018-09-28T13:43:21.368Z,6.10
2018-09-28T13:45:50.875Z,7.63
2018-09-28T13:48:21.740Z,6.23
2018-09-28T13:50:51.639Z,10.17
2018-09-28T13:53:21.521Z,8.80
2018-09-28T13:55:51.115Z,7.67
2018-09-28T13:58:20.751Z,6.20
2018-09-28T14:00:50.578Z,4.90
2018-09-28T14:03:20.258Z,6.63
2018-09-28T14:05:50.376Z,5.07
2018-09-28T14:08:23.661Z,5.90
2018-09-28T14:10:53.409Z,6.40
2018-09-28T14:13:23.195Z,6.37
2018-09-28T14:15:52.806Z,7.87
2018-09-28T14:18:22.423Z,7.47
2018-09-28T14:20:52.273Z,5.67
2018-09-28T14:23:21.927Z,8.53
2018-09-28T14:25:51.421Z,10.03
2018-09-28T14:28:21.030Z,7.73
2018-09-28T14:30:50.926Z,8.90
2018-09-28T14:33:20.657Z,8.83
2018-09-28T14:35:50.188Z,7.23
2018-09-28T14:38:19.825Z,6.40
2018-09-28T14:40:50.598Z,8.80
2018-09-28T14:43:21.341Z,5.30
2018-09-28T14:45:50.942Z,4.77
2018-09-28T14:48:20.840Z,4.47
2018-09-28T14:50:50.628Z,5.23
2018-09-28T14:53:20.384Z,7.03
2018-09-28T14:55:50.031Z,6.87
2018-09-28T14:58:19.771Z,3.17
2018-09-28T15:00:49.651Z,4.77
2018-09-28T15:03:19.376Z,5.83
2018-09-28T15:05:49.332Z,5.90
2018-09-28T15:08:19.153Z,5.57
2018-09-28T15:10:48.619Z,10.13
2018-09-28T15:13:18.560Z,7.17
2018-09-28T15:15:49.396Z,9.47
2018-09-28T15:18:19.264Z,8.90
2018-09-28T15:20:48.917Z,6.27
2018-09-28T15:23:18.830Z,7.13
2018-09-28T15:25:49.665Z,8.60
2018-09-28T15:28:19.405Z,9.87
2018-09-28T15:30:48.944Z,7.57
2018-09-28T15:33:18.894Z,7.87
2018-09-28T15:35:48.604Z,9.20
2018-09-28T15:38:18.338Z,5.53
2018-09-28T15:40:47.993Z,8.30
2018-09-28T15:43:17.797Z,7.77
2018-09-28T15:45:47.646Z,9.00
2018-09-28T15:48:17.172Z,8.60
2018-09-28T15:50:46.716Z,9.67
2018-09-28T15:53:16.340Z,8.30
2018-09-28T15:55:45.892Z,5.70
2018-09-28T15:58:15.392Z,9.07
2018-09-28T16:00:44.934Z,10.30
2018-09-28T16:03:14.488Z,9.10
2018-09-28T16:05:44.073Z,12.43
2018-09-28T16:08:13.796Z,8.67
2018-09-28T16:10:43.609Z,8.43
2018-09-28T16:13:13.324Z,9.37
2018-09-28T16:15:43.028Z,10.23
2018-09-28T16:18:12.744Z,9.77
2018-09-28T16:20:42.658Z,6.77
2018-09-28T16:23:12.461Z,8.70
2018-09-28T16:25:42.177Z,7.57
2018-09-28T16:28:11.933Z,5.60
2018-09-28T16:30:41.511Z,7.87
2018-09-28T16:33:11.008Z,12.43
2018-09-28T16:35:40.805Z,7.77
2018-09-28T16:38:10.523Z,11.40
2018-09-28T16:40:40.147Z,12.00
2018-09-28T16:43:09.878Z,9.93
2018-09-28T16:45:39.652Z,15.73
2018-09-28T16:48:09.168Z,14.37
2018-09-28T16:50:38.773Z,12.40
2018-09-28T16:53:08.494Z,9.57
2018-09-28T16:55:38.269Z,13.37
2018-09-28T16:58:08.081Z,7.30
2018-09-28T17:00:38.315Z,8.93
2018-09-28T17:03:08.728Z,8.40
2018-09-28T17:05:38.613Z,6.97
2018-09-28T17:08:08.254Z,6.43
2018-09-28T17:10:39.435Z,5.60
2018-09-28T17:13:08.987Z,5.10
2018-09-28T17:15:38.706Z,6.33
2018-09-28T17:18:08.728Z,7.83
2018-09-28T17:20:38.199Z,5.50
2018-09-28T17:23:07.729Z,6.53
2018-09-28T17:25:37.360Z,7.60
2018-09-28T17:28:07.363Z,5.63
2018-09-28T17:30:37.067Z,5.60
2018-09-28T17:33:06.569Z,6.73
2018-09-28T17:35:36.278Z,7.10
2018-09-28T17:38:06.112Z,5.53
2018-09-28T17:40:36.310Z,6.10
2018-09-28T17:43:06.552Z,6.60
2018-09-28T17:45:36.458Z,8.13
2018-09-28T17:48:06.259Z,7.17
2018-09-28T17:50:35.965Z,7.47
2018-09-28T17:53:05.685Z,6.27
2018-09-28T17:55:35.440Z,8.30
2018-09-28T17:58:05.266Z,8.93
2018-09-28T18:00:35.013Z,9.93
2018-09-28T18:03:04.787Z,11.50
2018-09-28T18:05:35.136Z,11.67
2018-09-28T18:08:04.724Z,13.07
2018-09-28T18:10:34.672Z,13.83
2018-09-28T18:13:04.383Z,16.63
2018-09-28T18:15:34.083Z,16.13
2018-09-28T18:18:03.860Z,14.40
2018-09-28T18:20:33.721Z,16.30
2018-09-28T18:23:03.275Z,17.83
2018-09-28T18:25:32.904Z,12.60
2018-09-28T18:28:02.727Z,11.20
2018-09-28T18:30:32.434Z,9.20
2018-09-28T18:33:02.316Z,9.27
2018-09-28T18:35:32.343Z,8.03
2018-09-28T18:38:01.990Z,11.70
2018-09-28T18:40:31.688Z,9.90
2018-09-28T18:43:01.440Z,7.57
2018-09-28T18:45:32.029Z,7.73
2018-09-28T18:48:01.731Z,6.87
2018-09-28T18:50:31.697Z,8.43
2018-09-28T18:53:01.365Z,8.80
2018-09-28T18:55:30.992Z,7.47
2018-09-28T18:58:00.670Z,10.60
2018-09-28T19:00:30.688Z,11.93
2018-09-28T19:03:00.499Z,9.53
2018-09-28T19:05:30.233Z,11.43
2018-09-28T19:07:59.852Z,13.97
2018-09-28T19:10:29.550Z,11.33
2018-09-28T19:12:59.360Z,14.97
2018-09-28T19:15:29.353Z,13.50
2018-09-28T19:17:59.060Z,13.80
2018-09-28T19:20:28.870Z,13.43
2018-09-28T19:22:58.642Z,12.67
2018-09-28T19:25:28.295Z,10.47
2018-09-28T19:27:58.008Z,10.43
2018-09-28T19:30:27.789Z,10.93
2018-09-28T19:33:02.023Z,7.33
2018-09-28T19:35:37.954Z,7.77
2018-09-28T19:38:44.236Z,8.37
2018-09-28T19:41:14.056Z,9.07
2018-09-28T19:43:43.772Z,9.57
2018-09-28T19:46:13.654Z,4.93
2018-09-28T19:48:43.446Z,8.60
2018-09-28T19:51:13.111Z,6.13
2018-09-28T19:53:42.810Z,7.13
2018-09-28T19:56:13.091Z,10.13
2018-09-28T19:58:42.748Z,4.87
2018-09-28T20:01:12.568Z,8.03
2018-09-28T20:03:42.084Z,6.20
2018-09-28T20:06:11.631Z,8.13
2018-09-28T20:08:41.374Z,5.27
2018-09-28T20:11:12.727Z,5.30
2018-09-28T20:13:42.861Z,5.73
2018-09-28T20:16:12.747Z,7.00
2018-09-28T20:18:42.905Z,5.93
2018-09-28T20:21:14.498Z,5.00
2018-09-28T20:23:44.416Z,5.43
2018-09-28T20:26:14.298Z,6.60
2018-09-28T20:28:44.284Z,9.17
2018-09-28T20:31:14.008Z,7.87
2018-09-28T20:34:07.600Z,6.27
2018-09-28T20:36:38.067Z,6.10
2018-09-28T20:39:11.564Z,5.73
2018-09-28T20:41:42.311Z,4.53
2018-09-28T20:44:12.125Z,8.03
2018-09-28T20:46:42.041Z,7.27
2018-09-28T20:49:11.935Z,7.47
2018-09-28T20:51:41.612Z,4.47
2018-09-28T20:54:12.359Z,5.13
2018-09-28T20:56:41.844Z,5.17
2018-09-28T20:59:11.511Z,6.83
2018-09-28T21:01:41.013Z,6.47
2018-09-28T21:04:10.719Z,5.70
2018-09-28T21:06:46.018Z,6.07
2018-09-28T21:09:19.312Z,5.73
2018-09-28T21:11:52.893Z,7.33
2018-09-28T21:14:23.056Z,7.00
2018-09-28T21:16:52.765Z,6.23
2018-09-28T21:19:22.309Z,6.37
2018-09-28T21:21:52.083Z,4.67
2018-09-28T21:24:21.823Z,4.53
2018-09-28T21:26:51.556Z,4.80
2018-09-28T21:29:21.310Z,4.87
2018-09-28T21:31:50.823Z,5.63
2018-09-28T21:34:20.524Z,5.90
2018-09-28T21:36:50.194Z,4.67
2018-09-28T21:39:20.044Z,7.80
2018-09-28T21:41:49.652Z,6.20
2018-09-28T21:44:20.189Z,8.87
2018-09-28T21:46:49.756Z,7.73
2018-09-28T21:49:19.393Z,7.67
2018-09-28T21:51:49.001Z,10.47
2018-09-28T21:54:18.490Z,6.03
2018-09-28T21:56:48.314Z,13.80
2018-09-28T21:59:17.966Z,6.20
2018-09-28T22:01:47.733Z,9.60
2018-09-28T22:04:17.444Z,6.03
2018-09-28T22:06:46.995Z,5.13
2018-09-28T22:09:16.568Z,5.00
2018-09-28T22:11:46.166Z,7.93
2018-09-28T22:14:15.930Z,7.07
2018-09-28T22:16:45.782Z,6.50
2018-09-28T22:19:15.338Z,7.27
2018-09-28T22:21:44.990Z,5.57
2018-09-28T22:24:14.508Z,6.00
2018-09-28T22:26:44.209Z,6.27
2018-09-28T22:29:13.756Z,6.50
2018-09-28T22:31:43.319Z,5.90
2018-09-28T22:34:13.028Z,3.67
2018-09-28T22:36:42.741Z,6.93
2018-09-28T22:39:12.997Z,4.43
2018-09-28T22:41:42.487Z,5.93
2018-09-28T22:44:11.988Z,6.93
2018-09-28T22:46:41.513Z,4.53
2018-09-28T22:49:11.080Z,4.50
2018-09-28T22:51:40.786Z,7.07
2018-09-28T22:54:10.389Z,8.43
2018-09-28T22:56:40.104Z,4.40
2018-09-28T22:59:09.816Z,6.27
2018-09-28T23:01:40.236Z,5.27
2018-09-28T23:04:10.455Z,7.57
2018-09-28T23:06:40.170Z,9.47
2018-09-28T23:09:10.300Z,7.63
2018-09-28T23:11:39.835Z,6.37
2018-09-28T23:14:09.360Z,6.93
2018-09-28T23:16:39.004Z,8.43
2018-09-28T23:19:08.817Z,4.63
2018-09-28T23:21:38.495Z,10.10
2018-09-28T23:24:08.416Z,8.57
2018-09-28T23:26:38.159Z,7.60
2018-09-28T23:29:07.872Z,7.37
2018-09-28T23:31:37.553Z,9.70
2018-09-28T23:34:07.689Z,8.33
2018-09-28T23:36:37.211Z,7.70
2018-09-28T23:39:08.341Z,7.13
2018-09-28T23:41:38.086Z,9.70
2018-09-28T23:44:08.191Z,7.00
2018-09-28T23:46:41.659Z,7.20
2018-09-28T23:49:11.186Z,5.93
2018-09-28T23:51:40.627Z,8.07
2018-09-28T23:54:10.084Z,4.30
2018-09-28T23:56:39.634Z,5.37
2018-09-28T23:59:09.192Z,8.37
